Rareville, Vermont
Current Conditions -  °F | °C
As of 1:15 AM on Sunday 23 Nov 2014 (Local Time) from KRUT Reporting Station
Overcast Overcast  
Wind Chill: 36°   Ceiling: 2100
Heat Index: 43°   Visibility: 10mi
Dew Point: 34°   Wind: 13mph
Humidity: 70%   Direction: 210°SSW
Pressure: 30.03"   Gusts: 18mph
Location:  43.5323°N, 73.1932°W
Report Text: KRUT 230615Z 21011G16KT 090V210 10SM OVC021 06/01 A3003 RMK AO1
Loading
Personal Weather Stations






























Interactive Weather Map New forecast layout! Learn more

10-Day Weather Forecast

Advertisements
Track Severe Weather on mobile